Time;durP1;ratioP1;P1;durP2;ratioP2;P2;SDS_P1;SDS_P2;PMS_P1;PMS_P2;Temp;Humidity;BMP_temperature;BMP_pressure;BME280_temperature;BME280_humidity;BME280_pressure;Samples;Min_cycle;Max_cycle;Signal;HPM_P1;HPM_P2
2022/03/11 00:01:05;;;;;;;5.78;3.28;;;;;;;-6.51;38.45;101655.28;5032562;28;20036;-63
2022/03/11 00:03:31;;;;;;;8.15;3.45;;;;;;;-6.54;38.16;101650.00;5050741;28;20029;-62
2022/03/11 00:05:56;;;;;;;7.55;2.88;;;;;;;-6.57;38.51;101653.41;5053902;28;20078;-63
2022/03/11 00:08:22;;;;;;;11.35;3.92;;;;;;;-6.85;38.61;101608.59;5036839;28;20128;-63
2022/03/11 00:10:47;;;;;;;9.38;4.03;;;;;;;-6.56;38.37;101655.16;5054451;28;20029;-62
2022/03/11 00:13:13;;;;;;;8.27;3.45;;;;;;;-6.61;38.88;101643.78;5036698;28;20115;-63
2022/03/11 00:15:39;;;;;;;7.65;3.83;;;;;;;-6.64;38.73;101641.13;5054957;28;20033;-65
2022/03/11 00:18:05;;;;;;;7.85;3.45;;;;;;;-6.59;38.94;101646.44;5054988;28;20033;-63
2022/03/11 00:20:31;;;;;;;8.75;3.83;;;;;;;-6.66;38.80;101635.00;5036379;28;20021;-63
2022/03/11 00:22:57;;;;;;;8.43;3.65;;;;;;;-6.63;38.85;101638.56;5054345;28;20513;-63
2022/03/11 00:25:23;;;;;;;10.20;3.67;;;;;;;-6.62;38.89;101647.25;5036789;28;20032;-63
2022/03/11 00:27:50;;;;;;;9.90;3.90;;;;;;;-6.62;38.76;101642.03;5036584;28;20025;-62
2022/03/11 00:30:16;;;;;;;8.98;3.75;;;;;;;-6.59;38.69;101646.44;5053717;28;20075;-63
2022/03/11 00:32:42;;;;;;;7.10;3.20;;;;;;;-7.42;38.96;101511.09;5054078;28;20482;-64
2022/03/11 00:35:10;;;;;;;9.75;3.70;;;;;;;-6.63;39.12;101645.50;5020153;28;20055;-64
2022/03/11 00:37:36;;;;;;;9.80;3.30;;;;;;;-6.69;39.19;101646.22;5054577;28;20040;-64
2022/03/11 00:40:04;;;;;;;9.68;3.20;;;;;;;-6.67;39.43;101638.47;5054027;28;20025;-63
2022/03/11 00:42:29;;;;;;;8.27;3.42;;;;;;;-6.71;39.21;101634.03;5035776;28;20382;-63
2022/03/11 00:44:55;;;;;;;11.70;3.20;;;;;;;-6.68;39.26;101632.34;5054452;28;20029;-64
2022/03/11 00:47:20;;;;;;;8.77;3.60;;;;;;;-6.68;39.05;101636.72;5019870;28;20032;-63
2022/03/11 00:49:46;;;;;;;7.72;3.22;;;;;;;-6.69;38.83;101627.13;5053665;28;20526;-65
2022/03/11 00:52:11;;;;;;;28.75;10.77;;;;;;;-6.90;39.10;101591.09;5053591;28;20036;-62
2022/03/11 00:54:37;;;;;;;11.35;4.18;;;;;;;-6.95;39.21;101585.81;5054288;28;20025;-63
2022/03/11 00:57:03;;;;;;;8.52;3.95;;;;;;;-6.72;39.34;101619.25;5054091;28;20070;-62
2022/03/11 00:59:28;;;;;;;10.93;3.53;;;;;;;-6.78;39.49;101614.81;5035275;28;20032;-63
2022/03/11 01:01:54;;;;;;;6.45;3.30;;;;;;;-6.73;39.04;101617.50;5035489;28;20065;-64
2022/03/11 01:04:20;;;;;;;7.30;3.03;;;;;;;-6.78;39.24;101613.06;5036184;28;20056;-63
2022/03/11 01:06:45;;;;;;;9.05;3.47;;;;;;;-6.78;39.23;101610.47;5053477;28;20029;-63
2022/03/11 01:09:11;;;;;;;10.13;3.30;;;;;;;-6.77;39.27;101612.22;5035295;28;20051;-63
2022/03/11 01:11:36;;;;;;;9.65;2.88;;;;;;;-6.94;39.55;101583.25;5035798;28;20054;-63
2022/03/11 01:14:03;;;;;;;10.15;3.08;;;;;;;-6.80;39.28;101606.09;5035201;28;20035;-63
2022/03/11 01:16:29;;;;;;;8.05;3.28;;;;;;;-6.79;39.24;101611.31;5051908;28;20390;-63
2022/03/11 01:18:54;;;;;;;9.50;2.95;;;;;;;-7.07;39.63;101565.63;5053010;28;20029;-63
2022/03/11 01:21:20;;;;;;;6.10;3.05;;;;;;;-7.06;39.57;101573.44;5053004;28;20025;-63
2022/03/11 01:23:46;;;;;;;10.50;3.13;;;;;;;-6.83;39.62;101608.63;5035438;28;20331;-63
2022/03/11 01:26:12;;;;;;;8.98;3.22;;;;;;;-7.01;39.52;101578.75;5034967;28;20484;-63
2022/03/11 01:28:41;;;;;;;11.30;2.97;;;;;;;-6.86;39.51;101617.25;5035153;28;20083;-63
2022/03/11 01:31:11;;;;;;;10.40;2.95;;;;;;;-6.83;39.73;101619.06;5053640;28;20063;-62
2022/03/11 01:33:41;;;;;;;7.15;3.03;;;;;;;-6.89;39.71;101600.66;5035290;28;20064;-63
2022/03/11 01:36:08;;;;;;;6.47;2.67;;;;;;;-6.89;39.49;101601.56;5035385;28;20500;-62
2022/03/11 01:38:33;;;;;;;7.68;3.35;;;;;;;-6.89;39.94;101601.56;5035204;28;20036;-62
2022/03/11 01:40:59;;;;;;;8.57;3.35;;;;;;;-7.02;39.92;101589.13;5052604;28;20128;-64
2022/03/11 01:43:24;;;;;;;9.00;3.10;;;;;;;-7.24;40.05;101549.63;5052969;28;20429;-64
2022/03/11 01:45:50;;;;;;;8.32;3.20;;;;;;;-7.16;40.12;101565.41;5053086;28;20437;-64
2022/03/11 01:48:15;;;;;;;12.18;3.70;;;;;;;-7.16;39.86;101561.09;5052519;28;20478;-62
2022/03/11 01:50:42;;;;;;;12.20;3.28;;;;;;;-6.93;40.17;101599.75;5034795;28;20037;-62
2022/03/11 01:53:09;;;;;;;6.90;3.05;;;;;;;-6.95;39.83;101599.72;5053398;28;20029;-62
2022/03/11 01:55:35;;;;;;;9.23;3.33;;;;;;;-6.97;40.19;101597.94;5052558;28;20491;-63
2022/03/11 01:58:02;;;;;;;6.20;3.20;;;;;;;-7.09;40.40;101582.94;5034272;28;20048;-63
2022/03/11 02:00:28;;;;;;;7.85;2.95;;;;;;;-7.03;40.37;101584.78;5052696;28;20044;-62
2022/03/11 02:02:54;;;;;;;9.40;3.25;;;;;;;-6.99;40.75;101597.00;5035074;28;20028;-62
2022/03/11 02:05:20;;;;;;;7.07;3.15;;;;;;;-7.19;40.82;101574.06;5034158;28;20386;-62
2022/03/11 02:07:47;;;;;;;8.95;3.50;;;;;;;-6.98;40.57;101598.78;5034308;28;20102;-62
2022/03/11 02:10:13;;;;;;;12.20;3.47;;;;;;;-6.99;40.79;101602.22;5052863;28;20037;-65
2022/03/11 02:12:39;;;;;;;9.57;3.47;;;;;;;-7.11;40.53;101580.28;5052786;28;20056;-62
2022/03/11 02:15:06;;;;;;;9.15;3.83;;;;;;;-7.26;40.66;101548.72;5017673;28;20067;-62
2022/03/11 02:17:32;;;;;;;9.77;4.13;;;;;;;-7.03;40.71;101589.97;5051658;28;20036;-62
2022/03/11 02:19:58;;;;;;;8.10;3.58;;;;;;;-7.07;40.85;101595.13;5018199;28;20035;-63
2022/03/11 02:22:25;;;;;;;9.93;4.45;;;;;;;-7.13;41.01;101589.81;5052374;28;20525;-62
2022/03/11 02:24:54;;;;;;;7.80;3.88;;;;;;;-7.35;41.40;101555.50;5051726;28;20114;-63
2022/03/11 02:27:22;;;;;;;8.40;3.72;;;;;;;-7.17;41.57;101595.81;5033379;28;20212;-62
2022/03/11 02:29:47;;;;;;;8.35;3.85;;;;;;;-7.18;41.50;101590.53;5052492;28;20044;-63
2022/03/11 02:32:13;;;;;;;12.13;3.78;;;;;;;-7.19;41.32;101596.59;5052596;28;20033;-63
2022/03/11 02:34:38;;;;;;;13.25;4.78;;;;;;;-7.21;41.39;101586.16;5051502;28;20446;-63
2022/03/11 02:37:05;;;;;;;9.35;4.30;;;;;;;-7.21;41.67;101587.03;5051689;28;20025;-63
2022/03/11 02:39:30;;;;;;;12.43;4.53;;;;;;;-7.20;41.79;101603.53;5052102;28;20033;-63
2022/03/11 02:41:57;;;;;;;12.65;4.38;;;;;;;-7.28;41.98;101587.75;5051846;28;20029;-63
2022/03/11 02:44:23;;;;;;;14.50;4.75;;;;;;;-7.22;41.83;101587.88;5051042;28;20055;-64
2022/03/11 02:46:49;;;;;;;12.05;5.10;;;;;;;-7.32;41.90;101585.03;5033762;28;20021;-63
2022/03/11 02:49:14;;;;;;;13.32;5.10;;;;;;;-7.26;42.29;101595.59;5017934;28;20082;-64
2022/03/11 02:51:40;;;;;;;14.63;4.65;;;;;;;-7.29;42.34;101585.09;5034426;28;20077;-64
2022/03/11 02:54:06;;;;;;;12.85;4.78;;;;;;;-7.25;41.97;101577.41;5033552;28;20033;-64
2022/03/11 02:56:31;;;;;;;11.35;4.45;;;;;;;-7.25;42.00;101597.34;5051140;28;20405;-62
2022/03/11 02:58:57;;;;;;;11.18;4.45;;;;;;;-7.28;41.87;101586.88;5051494;28;20035;-64
2022/03/11 03:01:22;;;;;;;10.30;4.20;;;;;;;-7.28;42.26;101590.38;5051159;28;20041;-63
2022/03/11 03:03:48;;;;;;;12.27;4.40;;;;;;;-7.37;42.20;101580.63;5050964;28;20064;-63
2022/03/11 03:06:13;;;;;;;11.73;4.50;;;;;;;-7.31;42.17;101586.81;5051248;28;20070;-63
2022/03/11 03:08:39;;;;;;;11.68;4.28;;;;;;;-7.36;42.26;101573.69;5050766;28;20439;-64
2022/03/11 03:11:04;;;;;;;11.13;4.60;;;;;;;-7.34;42.29;101587.63;5051168;28;20138;-63
2022/03/11 03:13:30;;;;;;;10.98;4.95;;;;;;;-7.36;42.23;101573.69;5051457;28;20389;-64
2022/03/11 03:15:55;;;;;;;8.88;4.25;;;;;;;-7.39;42.30;101581.44;5033283;28;20147;-64
2022/03/11 03:18:21;;;;;;;10.27;4.28;;;;;;;-7.49;42.43;101562.13;5033436;28;20025;-65
2022/03/11 03:20:47;;;;;;;11.68;5.22;;;;;;;-7.43;42.90;101572.69;5016706;28;20133;-66
2022/03/11 03:23:12;;;;;;;10.57;4.57;;;;;;;-7.54;42.55;101566.38;5033789;28;20037;-63
2022/03/11 03:25:38;;;;;;;19.55;5.22;;;;;;;-7.48;42.95;101571.69;5033626;28;20071;-62
2022/03/11 03:28:04;;;;;;;12.77;4.45;;;;;;;-7.50;43.34;101570.78;5032988;28;20039;-65
2022/03/11 03:30:30;;;;;;;14.10;4.30;;;;;;;-7.68;43.01;101542.66;5051033;28;20053;-64
2022/03/11 03:32:55;;;;;;;16.30;4.70;;;;;;;-7.55;42.82;101552.50;5033478;28;20115;-62
2022/03/11 03:35:21;;;;;;;10.80;4.45;;;;;;;-7.52;42.98;101557.75;5032690;28;20029;-64
2022/03/11 03:37:46;;;;;;;17.02;5.07;;;;;;;-7.52;43.02;101559.47;5050963;28;20033;-63
2022/03/11 03:40:12;;;;;;;13.07;4.65;;;;;;;-7.61;43.04;101547.13;5032442;28;20124;-63
2022/03/11 03:42:38;;;;;;;13.20;4.47;;;;;;;-7.57;43.05;101561.09;5032694;28;20915;-63
2022/03/11 03:45:06;;;;;;;9.85;4.45;;;;;;;-7.57;43.08;101558.50;5032593;28;20059;-63
2022/03/11 03:47:32;;;;;;;12.52;5.15;;;;;;;-7.62;43.49;101549.72;5016587;28;20029;-63
2022/03/11 03:49:57;;;;;;;13.20;4.43;;;;;;;-7.58;43.57;101546.34;5051034;28;20051;-64
2022/03/11 03:52:23;;;;;;;14.13;5.15;;;;;;;-7.53;43.40;101556.00;5032702;28;20040;-64
2022/03/11 03:54:48;;;;;;;12.43;4.25;;;;;;;-7.59;43.34;101532.47;5032740;28;20025;-63
2022/03/11 03:57:14;;;;;;;15.13;5.05;;;;;;;-7.52;43.43;101541.25;5051119;28;20033;-63
2022/03/11 03:59:39;;;;;;;15.82;4.38;;;;;;;-7.50;43.78;101544.78;5050606;28;20032;-63
2022/03/11 04:02:05;;;;;;;13.82;5.07;;;;;;;-7.47;43.28;101538.75;5015181;28;20029;-64
2022/03/11 04:04:31;;;;;;;16.73;5.30;;;;;;;-7.43;43.57;101544.06;5050372;28;20032;-64
2022/03/11 04:06:57;;;;;;;13.63;4.93;;;;;;;-7.40;43.48;101548.44;5033106;28;20037;-65
2022/03/11 04:09:22;;;;;;;13.65;5.25;;;;;;;-7.32;43.68;101530.41;5032784;28;20368;-67
2022/03/11 04:11:48;;;;;;;11.68;4.85;;;;;;;-7.25;43.36;101532.28;5050477;28;20033;-63
2022/03/11 04:14:13;;;;;;;15.10;5.32;;;;;;;-7.16;43.23;101534.19;5032917;28;20032;-62
2022/03/11 04:16:39;;;;;;;14.43;4.97;;;;;;;-7.16;43.13;101522.06;5033314;28;20029;-65
2022/03/11 04:19:05;;;;;;;12.65;4.85;;;;;;;-7.02;43.04;101517.13;5050355;28;20107;-62
2022/03/11 04:21:30;;;;;;;11.25;5.18;;;;;;;-7.16;42.80;101480.41;5032184;28;20033;-61
2022/03/11 04:23:56;;;;;;;13.13;5.22;;;;;;;-6.85;42.62;101516.56;5032438;28;20039;-62
2022/03/11 04:26:22;;;;;;;15.10;4.95;;;;;;;-6.66;42.00;101522.97;5016472;28;20025;-62
2022/03/11 04:28:47;;;;;;;13.25;5.20;;;;;;;-6.53;42.15;101526.69;5050815;28;20025;-63
2022/03/11 04:31:13;;;;;;;13.32;5.68;;;;;;;-6.68;41.88;101478.66;5032086;28;20157;-62
2022/03/11 04:33:41;;;;;;;13.07;5.38;;;;;;;-6.26;41.63;101531.50;5050302;28;20064;-63
2022/03/11 04:36:07;;;;;;;13.20;5.78;;;;;;;-6.13;41.17;101526.47;5050696;28;20041;-59
2022/03/11 04:38:33;;;;;;;16.05;5.90;;;;;;;-5.45;40.50;101524.78;5050299;28;20036;-63
2022/03/11 04:41:00;;;;;;;13.07;5.65;;;;;;;-3.29;36.96;101512.66;5049839;28;20351;-63
2022/03/11 04:43:26;;;;;;;15.57;5.38;;;;;;;-0.84;32.94;101520.31;5032223;28;20029;-61
2022/03/11 04:45:52;;;;;;;16.70;6.15;;;;;;;0.27;29.78;101470.25;5050781;28;20029;-62
2022/03/11 04:48:18;;;;;;;16.70;6.03;;;;;;;0.23;29.94;101503.66;5050311;28;20402;-63
2022/03/11 04:50:44;;;;;;;12.40;6.05;;;;;;;-0.47;30.72;101472.72;5050752;28;20036;-64
2022/03/11 04:53:09;;;;;;;21.35;6.25;;;;;;;-0.84;30.88;101504.53;5035532;28;20082;-62
2022/03/11 04:55:36;;;;;;;17.50;6.50;;;;;;;-1.40;32.36;101510.06;5054262;28;20409;-62
2022/03/11 04:58:01;;;;;;;17.58;6.18;;;;;;;-1.32;32.58;101455.72;5053397;28;20416;-62
2022/03/11 05:00:27;;;;;;;20.35;7.60;;;;;;;1.08;29.16;101495.59;5053513;28;20029;-62
2022/03/11 05:02:54;;;;;;;17.25;6.32;;;;;;;3.55;25.98;101485.59;5053511;28;20029;-62
2022/03/11 05:05:20;;;;;;;17.20;7.18;;;;;;;5.73;22.91;101493.47;5053502;28;20033;-61
2022/03/11 05:07:46;;;;;;;15.30;6.30;;;;;;;7.42;20.99;101489.09;5018954;28;20045;-62
2022/03/11 05:10:15;;;;;;;17.75;8.60;;;;;;;8.88;19.38;101488.16;5053288;28;20477;-63
2022/03/11 05:12:41;;;;;;;16.35;7.15;;;;;;;10.09;18.28;101490.28;5053049;28;20033;-61
2022/03/11 05:15:09;;;;;;;12.10;6.13;;;;;;;11.06;17.26;101486.91;5053162;28;20478;-63
2022/03/11 05:17:35;;;;;;;14.45;6.22;;;;;;;11.97;16.14;101460.28;5018599;28;20107;-63
2022/03/11 05:20:05;;;;;;;19.80;7.20;;;;;;;13.23;15.01;101484.75;5035415;28;20025;-63
2022/03/11 05:22:32;;;;;;;14.60;6.57;;;;;;;14.14;14.07;101477.81;5052882;28;20033;-63
2022/03/11 05:24:57;;;;;;;15.50;7.22;;;;;;;14.93;13.47;101473.13;5034943;28;20025;-62
2022/03/11 05:27:23;;;;;;;12.10;6.15;;;;;;;15.68;12.83;101474.91;5035573;28;20036;-62
2022/03/11 05:29:48;;;;;;;14.75;6.47;;;;;;;16.26;12.08;101438.97;5052835;28;20448;-62
2022/03/11 05:32:16;;;;;;;15.93;6.53;;;;;;;17.01;11.58;101469.94;5034459;28;20563;-63
2022/03/11 05:34:42;;;;;;;13.43;6.32;;;;;;;17.55;11.01;101464.59;5053152;28;20112;-62
2022/03/11 05:37:09;;;;;;;18.15;6.78;;;;;;;18.04;10.81;101475.00;5052817;28;20036;-63
2022/03/11 05:39:35;;;;;;;13.95;7.20;;;;;;;18.43;10.27;101471.63;5052593;28;20072;-63
2022/03/11 05:42:00;;;;;;;14.95;6.90;;;;;;;18.78;10.05;101454.94;5034435;28;20052;-63
2022/03/11 05:44:26;;;;;;;19.73;7.95;;;;;;;19.24;9.86;101459.09;5053045;28;20549;-64
2022/03/11 05:46:55;;;;;;;19.00;8.15;;;;;;;19.73;9.44;101459.09;5034602;28;20128;-63
2022/03/11 05:49:21;;;;;;;15.45;7.82;;;;;;;20.36;8.75;101446.84;5052929;28;20467;-64
2022/03/11 05:51:46;;;;;;;15.80;7.18;;;;;;;21.01;8.46;101448.72;5018803;28;20047;-63
2022/03/11 05:54:12;;;;;;;18.13;7.45;;;;;;;21.51;8.13;101443.78;5052415;28;20111;-64
2022/03/11 05:56:38;;;;;;;18.98;8.23;;;;;;;22.01;7.54;101438.75;5034555;28;20025;-64
2022/03/11 05:59:04;;;;;;;13.70;7.88;;;;;;;22.36;7.28;101424.13;5052236;28;20040;-63
2022/03/11 06:01:31;;;;;;;21.42;7.30;;;;;;;22.82;6.86;101438.50;5052835;28;20039;-64
2022/03/11 06:03:57;;;;;;;23.77;7.65;;;;;;;23.28;6.43;101425.31;5034055;28;20127;-64
2022/03/11 06:06:22;;;;;;;16.98;7.85;;;;;;;23.88;6.46;101433.34;5052221;28;20133;-63
2022/03/11 06:08:48;;;;;;;17.45;8.05;;;;;;;24.17;6.01;101427.34;5052055;28;20461;-64
2022/03/11 06:11:13;;;;;;;20.48;7.13;;;;;;;24.54;5.87;101413.19;5034946;28;20029;-62
2022/03/11 06:13:39;;;;;;;16.02;7.63;;;;;;;24.91;5.85;101426.22;5052313;28;20036;-62
2022/03/11 06:16:05;;;;;;;18.33;7.38;;;;;;;25.39;5.44;101435.34;5051987;28;20466;-63
2022/03/11 06:18:30;;;;;;;20.15;7.57;;;;;;;25.74;5.01;101427.53;5052019;28;20033;-64
2022/03/11 06:20:56;;;;;;;19.13;7.50;;;;;;;26.02;5.17;101440.63;5034837;28;20108;-63
2022/03/11 06:23:22;;;;;;;28.67;8.27;;;;;;;26.37;4.95;101427.28;5034383;28;20040;-63
2022/03/11 06:25:48;;;;;;;20.60;7.65;;;;;;;26.68;4.64;101417.94;5051703;28;20086;-63
2022/03/11 06:28:14;;;;;;;14.98;7.32;;;;;;;27.00;4.72;101414.97;5051643;28;20045;-64
2022/03/11 06:30:39;;;;;;;23.33;7.80;;;;;;;27.08;4.12;101365.38;5052162;28;20049;-64
2022/03/11 06:33:06;;;;;;;14.18;7.10;;;;;;;27.75;4.26;101423.75;5052246;28;20120;-64
2022/03/11 06:35:32;;;;;;;13.65;7.43;;;;;;;28.11;3.85;101410.88;5033667;28;20086;-64
2022/03/11 06:37:58;;;;;;;17.20;7.10;;;;;;;28.50;3.59;101414.09;5051726;28;20041;-64
2022/03/11 06:40:24;;;;;;;19.20;7.40;;;;;;;28.89;3.31;101409.81;5034789;28;20059;-64
2022/03/11 06:42:50;;;;;;;15.32;7.22;;;;;;;29.31;3.55;101409.69;5033814;28;20041;-65
2022/03/11 06:45:17;;;;;;;21.00;7.45;;;;;;;29.42;3.44;101404.63;5031861;28;20032;-65
2022/03/11 06:47:44;;;;;;;18.33;7.78;;;;;;;27.81;3.70;101372.56;5050235;28;20043;-64
2022/03/11 06:50:10;;;;;;;15.70;7.32;;;;;;;27.95;3.99;101403.78;5071294;28;20025;-62
2022/03/11 06:52:36;;;;;;;11.05;7.70;;;;;;;28.82;3.40;101388.81;5069287;28;20097;-63
2022/03/11 06:55:05;;;;;;;26.35;8.90;;;;;;;29.55;3.35;101404.66;5070696;28;20059;-61
2022/03/11 06:57:31;;;;;;;19.80;8.40;;;;;;;29.76;3.23;101399.97;5070974;28;20031;-63
2022/03/11 06:59:57;;;;;;;18.50;7.50;;;;;;;29.46;3.21;101389.38;5071120;28;20059;-63
2022/03/11 07:02:22;;;;;;;18.15;7.53;;;;;;;29.68;2.95;101394.69;5052853;28;20032;-62
2022/03/11 07:04:48;;;;;;;19.30;7.13;;;;;;;28.68;3.47;101385.13;5051935;28;20099;-62
2022/03/11 07:07:13;;;;;;;11.00;6.70;;;;;;;26.43;4.09;101388.06;5070674;28;20025;-61
2022/03/11 07:09:39;;;;;;;14.98;7.70;;;;;;;25.24;4.64;101389.53;5071021;28;20036;-62
2022/03/11 07:12:05;;;;;;;16.77;6.88;;;;;;;25.79;4.90;101386.69;5070847;28;20412;-65
2022/03/11 07:14:38;;;;;;;12.82;6.70;;;;;;;26.38;4.36;101371.31;5051259;28;20039;-67
2022/03/11 07:17:05;;;;;;;15.55;7.43;;;;;;;26.93;4.42;101377.28;5070613;28;20036;-61
2022/03/11 07:19:32;;;;;;;14.65;6.97;;;;;;;26.01;4.37;101378.56;5070577;28;20024;-63
2022/03/11 07:21:59;;;;;;;19.70;6.97;;;;;;;24.66;5.15;101370.72;5070932;28;20024;-62
2022/03/11 07:24:25;;;;;;;15.88;6.90;;;;;;;25.21;4.72;101371.59;5070622;28;20044;-61
2022/03/11 07:26:51;;;;;;;13.75;6.97;;;;;;;27.03;4.26;101354.13;5070637;28;20028;-63
2022/03/11 07:29:16;;;;;;;12.90;7.00;;;;;;;28.61;3.64;101350.16;5066307;28;20053;-63
2022/03/11 07:31:42;;;;;;;13.88;6.88;;;;;;;28.91;3.73;101359.97;5050715;28;20037;-62
2022/03/11 07:34:08;;;;;;;22.38;7.40;;;;;;;27.91;3.75;101353.78;5050108;28;20033;-62
2022/03/11 07:36:34;;;;;;;17.13;7.78;;;;;;;26.46;4.21;101356.63;5015966;28;20043;-65
2022/03/11 07:39:04;;;;;;;17.42;7.80;;;;;;;24.86;5.36;101357.44;5050943;28;20555;-61
2022/03/11 07:41:30;;;;;;;16.35;7.43;;;;;;;22.60;6.09;101351.59;5050813;28;20116;-63
2022/03/11 07:43:56;;;;;;;15.95;7.85;;;;;;;21.42;6.69;101344.75;5051598;28;20340;-62
2022/03/11 07:46:23;;;;;;;15.80;8.38;;;;;;;21.32;6.84;101350.28;5070799;28;20032;-61
2022/03/11 07:48:49;;;;;;;20.05;7.57;;;;;;;21.60;6.78;101341.97;5052958;28;20029;-61
2022/03/11 07:51:16;;;;;;;21.88;8.30;;;;;;;21.34;6.44;101342.81;5052436;28;20032;-67
2022/03/11 07:53:41;;;;;;;25.60;7.97;;;;;;;20.12;7.24;101346.72;5069899;28;20509;-61
2022/03/11 07:56:07;;;;;;;20.40;8.40;;;;;;;18.69;7.81;101312.00;5070612;28;20032;-62
2022/03/11 07:58:33;;;;;;;16.60;8.18;;;;;;;17.43;8.67;101335.69;5070318;28;20028;-60
2022/03/11 08:00:59;;;;;;;22.23;8.07;;;;;;;16.12;9.63;101340.09;5069967;28;20060;-62
2022/03/11 08:03:25;;;;;;;17.83;7.72;;;;;;;14.76;10.20;101344.09;5051434;28;20371;-62
2022/03/11 08:05:50;;;;;;;19.00;7.25;;;;;;;12.98;11.09;101330.41;5052246;28;20026;-62
2022/03/11 08:08:16;;;;;;;18.73;7.50;;;;;;;11.66;12.19;101342.22;5070479;28;20040;-62
2022/03/11 08:10:42;;;;;;;22.70;7.18;;;;;;;10.50;12.94;101335.56;5051903;28;20340;-64
2022/03/11 08:13:08;;;;;;;17.67;5.60;;;;;;;9.51;13.24;101334.56;5069709;28;20100;-63
2022/03/11 08:15:37;;;;;;;12.60;6.25;;;;;;;8.75;14.45;101347.22;5069720;28;20107;-59
2022/03/11 08:18:03;;;;;;;12.48;5.22;;;;;;;8.01;14.67;101337.31;5060490;28;20446;-61
2022/03/11 08:20:30;;;;;;;11.48;5.28;;;;;;;7.27;15.25;101314.75;5070223;28;20114;-61
2022/03/11 08:22:56;;;;;;;12.63;4.55;;;;;;;6.88;15.39;101335.00;5051592;28;20058;-62
2022/03/11 08:25:26;;;;;;;9.48;4.10;;;;;;;6.47;15.97;101343.72;5070331;28;20036;-63
2022/03/11 08:27:54;;;;;;;7.63;3.70;;;;;;;6.22;16.01;101347.34;5074351;28;20036;-62
2022/03/11 08:30:20;;;;;;;13.70;3.85;;;;;;;5.66;15.69;101309.44;5060726;28;20119;-62
2022/03/11 08:32:46;;;;;;;8.90;4.05;;;;;;;5.67;16.69;101335.13;5072322;28;20075;-62
2022/03/11 08:35:12;;;;;;;9.48;4.35;;;;;;;5.50;16.93;101330.41;5072417;28;20094;-57
2022/03/11 08:37:38;;;;;;;8.32;3.42;;;;;;;5.25;17.18;101335.72;5074060;28;20147;-61
2022/03/11 08:40:05;;;;;;;9.80;3.22;;;;;;;4.94;16.99;101302.19;5073360;28;20035;-62
2022/03/11 08:42:32;;;;;;;11.40;3.65;;;;;;;5.01;16.62;101325.84;5072054;28;20039;-63
2022/03/11 08:45:00;;;;;;;8.23;3.00;;;;;;;4.78;17.14;101312.47;5071953;28;20410;-63
2022/03/11 08:47:26;;;;;;;11.13;3.67;;;;;;;4.40;17.19;101304.81;5072245;28;20032;-63
2022/03/11 08:49:52;;;;;;;13.30;3.03;;;;;;;4.00;17.70;101262.72;5072927;28;20039;-60
2022/03/11 08:52:19;;;;;;;11.93;3.22;;;;;;;4.20;18.13;101297.47;5072871;28;20458;-64
2022/03/11 08:54:45;;;;;;;9.38;3.80;;;;;;;4.20;18.31;101302.78;5072772;28;20460;-64
2022/03/11 08:57:11;;;;;;;10.82;3.40;;;;;;;4.25;17.90;101308.78;5072199;28;20355;-63
2022/03/11 08:59:37;;;;;;;12.75;4.25;;;;;;;4.29;18.04;101306.00;5072328;28;20036;-62
2022/03/11 09:02:06;;;;;;;12.18;5.55;;;;;;;4.30;17.89;101317.47;5072224;28;20040;-63
2022/03/11 09:04:32;;;;;;;13.38;5.97;;;;;;;4.23;18.11;101300.03;5054869;28;20346;-64
2022/03/11 09:06:58;;;;;;;10.90;6.40;;;;;;;4.22;17.88;101309.78;5054173;28;20021;-64
2022/03/11 09:09:23;;;;;;;13.57;5.90;;;;;;;3.96;18.66;101292.84;5072298;28;20032;-62
2022/03/11 09:11:49;;;;;;;13.95;5.32;;;;;;;3.94;18.74;101289.38;5073035;28;20141;-63
2022/03/11 09:14:14;;;;;;;15.52;5.13;;;;;;;3.90;18.73;101306.28;5038116;28;20052;-62
2022/03/11 09:16:40;;;;;;;26.92;4.70;;;;;;;3.88;18.13;101293.09;5066927;28;20055;-63
2022/03/11 09:19:05;;;;;;;10.48;4.93;;;;;;;3.86;18.57;101291.38;5072820;28;20032;-64
2022/03/11 09:21:31;;;;;;;10.52;4.93;;;;;;;3.78;19.09;101288.94;5072576;28;20044;-64
2022/03/11 09:23:56;;;;;;;14.57;5.20;;;;;;;3.75;19.05;101277.59;5037332;28;20078;-64
2022/03/11 09:26:22;;;;;;;9.80;5.30;;;;;;;3.75;18.85;101283.75;5070841;28;20032;-62
2022/03/11 09:28:47;;;;;;;11.10;5.18;;;;;;;3.77;18.64;101270.47;5069053;28;20024;-64
2022/03/11 09:31:13;;;;;;;13.40;4.93;;;;;;;3.88;18.55;101271.88;5070510;28;20122;-63
2022/03/11 09:33:40;;;;;;;12.40;5.63;;;;;;;3.94;18.93;101273.47;5072675;28;20067;-64
2022/03/11 09:36:06;;;;;;;15.18;5.78;;;;;;;3.98;18.95;101266.31;5072204;28;20055;-65
2022/03/11 09:38:32;;;;;;;10.00;5.03;;;;;;;3.88;18.08;101268.34;5070812;28;20036;-63
2022/03/11 09:41:01;;;;;;;8.10;4.28;;;;;;;3.53;17.87;101220.78;5054110;28;20039;-63
2022/03/11 09:43:26;;;;;;;12.00;5.15;;;;;;;3.72;17.91;101257.34;5054072;28;20054;-65
2022/03/11 09:45:53;;;;;;;10.30;4.57;;;;;;;3.74;18.01;101260.81;5053854;28;20045;-62
2022/03/11 09:48:19;;;;;;;7.95;4.53;;;;;;;3.78;17.90;101256.31;5053374;28;20060;-63
2022/03/11 09:50:45;;;;;;;8.90;4.53;;;;;;;3.83;18.34;101260.53;5071880;28;20075;-63
2022/03/11 09:53:12;;;;;;;8.88;4.82;;;;;;;3.87;18.47;101256.91;5072165;28;20056;-61
2022/03/11 09:55:42;;;;;;;13.48;4.55;;;;;;;3.82;18.29;101220.84;5071699;28;20499;-61
2022/03/11 09:58:08;;;;;;;11.00;5.10;;;;;;;3.85;17.58;101240.16;5071577;28;20036;-64
2022/03/11 10:00:35;;;;;;;9.90;4.18;;;;;;;3.77;18.42;101233.38;5071532;28;20479;-61
2022/03/11 10:03:01;;;;;;;11.57;4.60;;;;;;;3.71;18.62;101231.78;5053591;28;20028;-55
2022/03/11 10:05:50;;;;;;;15.18;4.05;;;;;;;3.82;18.54;101234.94;5053473;28;20043;-58
2022/03/11 10:08:16;;;;;;;10.70;4.60;;;;;;;3.42;18.42;101180.53;5051857;28;20064;-62
2022/03/11 10:10:44;;;;;;;13.75;4.78;;;;;;;3.67;18.44;101224.84;5056744;28;20032;-58
2022/03/11 10:13:11;;;;;;;12.80;5.20;;;;;;;3.68;18.77;101226.56;5071577;28;20174;-58
2022/03/11 10:15:39;;;;;;;10.90;4.57;;;;;;;3.70;19.15;101217.66;5070419;28;20029;-63
2022/03/11 10:18:09;;;;;;;12.80;5.20;;;;;;;3.86;18.53;101220.72;5070695;28;20036;-64
2022/03/11 10:20:36;;;;;;;11.20;5.28;;;;;;;3.64;18.65;101170.16;5069665;28;20024;-63
2022/03/11 10:23:13;;;;;;;12.00;5.00;;;;;;;3.85;18.49;101210.16;5072512;28;20034;-63
2022/03/11 10:25:39;;;;;;;9.77;5.38;;;;;;;3.75;19.29;101198.97;5053538;28;20024;-64
2022/03/11 10:28:13;;;;;;;12.10;5.28;;;;;;;3.74;19.09;101199.88;5053949;28;20040;-59
2022/03/11 10:30:42;;;;;;;9.95;5.60;;;;;;;3.53;18.93;101156.38;5053657;28;20051;-60
2022/03/11 10:33:13;;;;;;;15.57;5.88;;;;;;;3.89;18.81;101195.91;5071855;28;20413;-61
2022/03/11 10:35:43;;;;;;;11.45;4.60;;;;;;;3.98;18.77;101186.81;5071393;28;20028;-63
2022/03/11 10:38:36;;;;;;;11.95;4.63;;;;;;;4.08;18.78;101174.13;5070115;28;20036;-62
2022/03/11 10:41:02;;;;;;;20.05;4.70;;;;;;;3.98;18.82;101168.25;5053936;28;20029;-60
2022/03/11 10:43:32;;;;;;;7.57;3.20;;;;;;;3.90;18.81;101167.63;5070033;28;20421;-62
2022/03/11 10:46:03;;;;;;;8.73;3.40;;;;;;;3.81;18.48;101172.28;5070331;28;20028;-59
2022/03/11 10:48:44;;;;;;;9.95;3.25;;;;;;;3.82;18.31;101179.31;5070975;28;20038;-60
2022/03/11 10:51:34;;;;;;;8.55;3.28;;;;;;;3.71;18.29;101174.34;5070669;28;20044;-61
2022/03/11 10:54:01;;;;;;;9.95;2.80;;;;;;;3.67;17.84;101163.91;5069421;28;20125;-59
2022/03/11 10:56:39;;;;;;;8.52;2.80;;;;;;;3.61;18.67;101162.31;5069989;28;20507;-62
2022/03/11 10:59:21;;;;;;;7.50;3.33;;;;;;;3.47;18.48;101149.47;5070051;28;20032;-61
2022/03/11 11:01:47;;;;;;;9.98;3.70;;;;;;;3.36;17.98;101146.25;5069253;28;20043;-63
2022/03/11 11:04:15;;;;;;;6.75;2.92;;;;;;;3.06;18.64;101103.91;5070974;28;20032;-63
2022/03/11 11:06:41;;;;;;;6.32;2.67;;;;;;;3.20;18.19;101133.50;5070345;28;20466;-63
2022/03/11 11:09:08;;;;;;;7.43;3.70;;;;;;;3.15;18.92;101119.53;5071382;28;20029;-62
2022/03/11 11:11:35;;;;;;;14.35;3.00;;;;;;;3.16;18.67;101123.91;5071071;28;20063;-63
2022/03/11 11:14:05;;;;;;;11.52;3.13;;;;;;;3.21;18.99;101127.28;5069883;28;20048;-64
2022/03/11 11:16:39;;;;;;;6.03;3.03;;;;;;;3.25;18.69;101126.28;5069113;28;20028;-64
2022/03/11 11:19:07;;;;;;;5.57;2.80;;;;;;;3.18;18.69;101116.78;5069704;28;20024;-62
2022/03/11 11:21:36;;;;;;;8.80;3.25;;;;;;;3.12;18.76;101115.19;5071302;28;20044;-63